Time;durP1;ratioP1;P1;durP2;ratioP2;P2;SDS_P1;SDS_P2;PMS_P1;PMS_P2;Temp;Humidity;BMP_temperature;BMP_pressure;BME280_temperature;BME280_humidity;BME280_pressure;Samples;Min_cycle;Max_cycle;Signal;HPM_P1;HPM_P2
2023/09/22 00:00:05;;;;;;;9.63;7.63;;;14.60;99.90;;;;;;4944364;28;20033;-84
2023/09/22 00:02:31;;;;;;;9.15;8.23;;;14.60;99.90;;;;;;4961452;28;20615;-82
2023/09/22 00:04:57;;;;;;;11.07;8.07;;;14.60;99.90;;;;;;4948497;28;20054;-85
2023/09/22 00:07:23;;;;;;;9.98;8.70;;;14.60;99.90;;;;;;4944474;28;20392;-81
2023/09/22 00:09:49;;;;;;;8.85;7.95;;;14.60;99.90;;;;;;4931104;28;20031;-82
2023/09/22 00:12:15;;;;;;;9.85;8.20;;;14.60;99.90;;;;;;4941862;28;20055;-85
2023/09/22 00:14:41;;;;;;;8.52;6.97;;;14.60;99.90;;;;;;4943260;28;20502;-82
2023/09/22 00:17:06;;;;;;;12.07;9.63;;;14.60;99.90;;;;;;4943093;28;20097;-82
2023/09/22 00:19:32;;;;;;;9.85;8.85;;;14.50;99.90;;;;;;4950694;28;20069;-82
2023/09/22 00:21:58;;;;;;;12.18;10.52;;;14.50;99.90;;;;;;4946281;28;20376;-82
2023/09/22 00:24:23;;;;;;;15.32;11.77;;;14.50;99.90;;;;;;4949348;28;20027;-81
2023/09/22 00:26:50;;;;;;;17.50;13.63;;;14.50;99.90;;;;;;4947992;28;20027;-81
2023/09/22 00:29:15;;;;;;;13.50;11.85;;;14.40;99.90;;;;;;4951185;28;20499;-84
2023/09/22 00:31:41;;;;;;;13.93;11.23;;;14.50;99.90;;;;;;4941668;28;20039;-82
2023/09/22 00:34:08;;;;;;;17.75;15.63;;;14.40;99.90;;;;;;4959282;28;20034;-82
2023/09/22 00:36:33;;;;;;;16.55;13.95;;;14.40;99.90;;;;;;4930944;28;20027;-85
2023/09/22 00:39:00;;;;;;;21.20;16.23;;;14.40;99.90;;;;;;4963950;28;20038;-84
2023/09/22 00:41:26;;;;;;;20.55;14.32;;;14.30;99.90;;;;;;4964643;28;20047;-83
2023/09/22 00:43:51;;;;;;;18.55;15.25;;;14.30;99.90;;;;;;4944554;28;20088;-82
2023/09/22 00:46:22;;;;;;;17.23;14.82;;;14.30;99.90;;;;;;4963387;28;20074;-83
2023/09/22 00:48:48;;;;;;;18.20;16.27;;;14.30;99.90;;;;;;4960727;28;20105;-82
2023/09/22 00:51:18;;;;;;;18.55;14.98;;;14.30;99.90;;;;;;4947632;28;20035;-81
2023/09/22 00:53:43;;;;;;;15.07;12.60;;;14.20;99.90;;;;;;4942080;28;20034;-83
2023/09/22 00:56:09;;;;;;;17.33;14.30;;;14.20;99.90;;;;;;4946287;28;20049;-82
2023/09/22 00:58:36;;;;;;;16.23;13.73;;;14.10;99.90;;;;;;4961872;28;20023;-82
2023/09/22 01:01:02;;;;;;;17.45;14.68;;;14.10;99.90;;;;;;4945856;28;20038;-84
2023/09/22 01:03:29;;;;;;;15.45;12.82;;;14.10;99.90;;;;;;4964797;28;20035;-81
2023/09/22 01:05:55;;;;;;;13.80;11.70;;;14.10;99.90;;;;;;4944135;28;20470;-83
2023/09/22 01:08:21;;;;;;;14.13;12.13;;;14.10;99.90;;;;;;4965060;28;20071;-82
2023/09/22 01:10:46;;;;;;;12.23;10.93;;;14.10;99.90;;;;;;4962499;28;20391;-83
2023/09/22 01:13:12;;;;;;;11.30;9.75;;;14.10;99.90;;;;;;4962456;28;20127;-82
2023/09/22 01:15:43;;;;;;;15.70;12.98;;;14.10;99.90;;;;;;4944779;28;20065;-81
2023/09/22 01:18:15;;;;;;;11.63;10.02;;;14.00;99.90;;;;;;4927673;28;20137;-83
2023/09/22 01:20:43;;;;;;;12.93;9.85;;;14.10;99.90;;;;;;4960842;28;20046;-85
2023/09/22 01:23:12;;;;;;;9.88;8.07;;;14.00;99.90;;;;;;4947983;28;20023;-81
2023/09/22 01:25:41;;;;;;;8.68;7.50;;;14.00;99.90;;;;;;4946411;28;20024;-81
2023/09/22 01:28:08;;;;;;;13.23;9.60;;;14.00;99.90;;;;;;4962668;28;20023;-81
2023/09/22 01:30:36;;;;;;;10.88;8.77;;;13.90;99.90;;;;;;4964708;28;20492;-82
2023/09/22 01:33:03;;;;;;;8.45;7.32;;;13.90;99.90;;;;;;4962073;28;20035;-83
2023/09/22 01:35:32;;;;;;;6.63;5.90;;;13.90;99.90;;;;;;4949333;28;20037;-81
2023/09/22 01:38:11;;;;;;;9.65;8.27;;;14.00;99.90;;;;;;4963452;28;20027;-81
2023/09/22 01:40:39;;;;;;;7.70;6.13;;;13.90;99.90;;;;;;4945832;28;20046;-81
2023/09/22 01:43:05;;;;;;;12.38;8.70;;;13.80;99.90;;;;;;4948859;28;20046;-84
2023/09/22 01:45:31;;;;;;;12.25;9.90;;;13.80;99.90;;;;;;4964879;28;20019;-85
2023/09/22 01:47:56;;;;;;;9.43;7.68;;;13.70;99.90;;;;;;5045314;28;20041;-80
2023/09/22 01:50:22;;;;;;;7.25;5.68;;;13.70;99.90;;;;;;4946988;28;20026;-83
2023/09/22 01:52:48;;;;;;;5.38;4.35;;;13.80;99.90;;;;;;4961950;28;20021;-82
2023/09/22 01:55:13;;;;;;;4.97;3.72;;;13.80;99.90;;;;;;4949769;28;20451;-82
2023/09/22 01:57:39;;;;;;;7.78;5.60;;;13.80;99.90;;;;;;4946062;28;20034;-81
2023/09/22 02:00:06;;;;;;;6.20;4.45;;;13.70;99.90;;;;;;4954967;28;20394;-80
2023/09/22 02:02:42;;;;;;;8.57;4.55;;;13.70;99.90;;;;;;4945757;28;20043;-81
2023/09/22 02:05:09;;;;;;;5.28;3.67;;;13.60;99.90;;;;;;4946085;28;20030;-82
2023/09/22 02:07:35;;;;;;;4.25;3.30;;;13.50;99.90;;;;;;4962687;28;20046;-84
2023/09/22 02:10:01;;;;;;;5.22;4.70;;;13.50;99.90;;;;;;4956613;28;20035;-81
2023/09/22 02:12:27;;;;;;;5.03;3.75;;;13.30;99.90;;;;;;4946044;28;20136;-82
2023/09/22 02:14:53;;;;;;;4.55;2.72;;;13.30;99.90;;;;;;4961988;28;20402;-86
2023/09/22 02:17:19;;;;;;;5.97;3.65;;;13.20;99.90;;;;;;4962448;28;20042;-81
2023/09/22 02:19:45;;;;;;;5.10;3.50;;;13.20;99.90;;;;;;4958492;28;20046;-81
2023/09/22 02:22:10;;;;;;;4.53;3.08;;;13.20;99.90;;;;;;4947706;28;20042;-81
2023/09/22 02:24:36;;;;;;;6.15;3.60;;;13.20;99.90;;;;;;4945325;28;20034;-80
2023/09/22 02:27:02;;;;;;;4.65;2.67;;;13.00;99.90;;;;;;4958673;28;20035;-83
2023/09/22 02:29:29;;;;;;;3.70;2.60;;;13.00;99.90;;;;;;4955988;28;20479;-81
2023/09/22 02:31:54;;;;;;;4.10;2.80;;;13.00;99.90;;;;;;4960049;28;20055;-81
2023/09/22 02:34:20;;;;;;;4.95;3.15;;;13.00;99.90;;;;;;4962305;28;20035;-81
2023/09/22 02:36:48;;;;;;;3.75;2.50;;;12.90;99.90;;;;;;4950351;28;20087;-86
2023/09/22 02:39:15;;;;;;;4.15;2.60;;;12.80;99.90;;;;;;4946297;28;20033;-84
2023/09/22 02:41:41;;;;;;;3.63;2.50;;;12.90;99.90;;;;;;4945897;28;20559;-81
2023/09/22 02:44:08;;;;;;;4.22;2.70;;;12.80;99.90;;;;;;4960113;28;20412;-81
2023/09/22 02:46:37;;;;;;;4.65;3.22;;;12.80;99.90;;;;;;4960438;28;20072;-82
2023/09/22 02:49:03;;;;;;;5.05;3.72;;;12.80;99.90;;;;;;4944797;28;20114;-81
2023/09/22 02:51:29;;;;;;;4.40;3.05;;;12.80;99.90;;;;;;4945252;28;20823;-81
2023/09/22 02:53:55;;;;;;;4.22;3.00;;;12.80;99.90;;;;;;4948583;28;20027;-81
2023/09/22 02:56:21;;;;;;;5.00;3.40;;;12.80;99.90;;;;;;4948367;28;20423;-81
2023/09/22 02:58:48;;;;;;;4.22;2.67;;;12.70;99.90;;;;;;4956341;28;20023;-84
2023/09/22 03:01:14;;;;;;;3.60;2.60;;;12.80;99.90;;;;;;4960865;28;20046;-81
2023/09/22 03:03:43;;;;;;;3.17;1.80;;;12.80;99.90;;;;;;4961498;28;20493;-82
2023/09/22 03:06:13;;;;;;;3.83;2.05;;;12.70;99.90;;;;;;4954020;28;20058;-82
2023/09/22 03:08:40;;;;;;;4.43;2.42;;;12.70;99.90;;;;;;4939635;28;20037;-80
2023/09/22 03:11:07;;;;;;;5.68;2.70;;;12.70;99.90;;;;;;4943109;28;20022;-81
2023/09/22 03:13:33;;;;;;;4.20;2.20;;;12.70;99.90;;;;;;4945929;28;20076;-81
2023/09/22 03:16:00;;;;;;;3.50;1.70;;;12.60;99.90;;;;;;4959443;28;20039;-80
2023/09/22 03:18:27;;;;;;;3.65;1.58;;;12.60;99.90;;;;;;4948350;28;20026;-81
2023/09/22 03:20:53;;;;;;;3.58;1.67;;;12.60;99.90;;;;;;4944307;28;20437;-82
2023/09/22 03:23:18;;;;;;;3.38;1.63;;;12.60;99.90;;;;;;4945577;28;20027;-82
2023/09/22 03:25:44;;;;;;;3.97;1.73;;;12.70;99.90;;;;;;4942220;28;20387;-81
2023/09/22 03:28:10;;;;;;;5.50;2.17;;;12.50;99.90;;;;;;4947630;28;20087;-83
2023/09/22 03:30:37;;;;;;;4.07;1.85;;;12.60;99.90;;;;;;4954447;28;20540;-81
2023/09/22 03:33:04;;;;;;;4.00;2.15;;;12.60;99.90;;;;;;4958550;28;20028;-83
2023/09/22 03:35:31;;;;;;;4.25;2.22;;;12.60;99.90;;;;;;4960089;28;20504;-83
2023/09/22 03:38:03;;;;;;;4.32;1.90;;;12.60;99.90;;;;;;4943148;28;20505;-81
2023/09/22 03:40:32;;;;;;;4.45;2.30;;;12.60;99.90;;;;;;4942156;28;20156;-83
2023/09/22 03:43:03;;;;;;;4.88;2.85;;;12.50;99.90;;;;;;4949555;28;20483;-81
2023/09/22 03:45:29;;;;;;;3.78;2.38;;;12.50;99.90;;;;;;4949236;28;20023;-86
2023/09/22 03:47:55;;;;;;;3.70;2.10;;;12.50;99.90;;;;;;4943919;28;20399;-82
2023/09/22 03:50:21;;;;;;;6.75;2.58;;;12.50;99.90;;;;;;4948754;28;20026;-86
2023/09/22 03:52:48;;;;;;;3.53;1.70;;;12.50;99.90;;;;;;4942386;28;20501;-81
2023/09/22 03:55:14;;;;;;;4.07;2.60;;;12.40;99.90;;;;;;4961973;28;20037;-80
2023/09/22 03:57:40;;;;;;;4.68;2.13;;;12.50;99.90;;;;;;4934126;28;20039;-86
2023/09/22 04:00:17;;;;;;;4.90;2.75;;;12.50;99.90;;;;;;4947570;28;20022;-80
2023/09/22 04:02:46;;;;;;;5.38;2.75;;;12.50;99.90;;;;;;4947379;28;20031;-83
2023/09/22 04:05:12;;;;;;;4.55;2.30;;;12.60;99.90;;;;;;4947488;28;20037;-81
2023/09/22 04:07:39;;;;;;;4.93;2.53;;;12.50;99.90;;;;;;4964843;28;20030;-81
2023/09/22 04:10:07;;;;;;;6.15;2.35;;;12.60;99.90;;;;;;4963067;28;20027;-81
2023/09/22 04:12:34;;;;;;;3.83;2.28;;;12.60;99.90;;;;;;4951453;28;20043;-83
2023/09/22 04:15:04;;;;;;;5.35;2.72;;;12.60;99.90;;;;;;4949384;28;20038;-81
2023/09/22 04:17:31;;;;;;;3.70;2.13;;;12.60;99.90;;;;;;4946941;28;20042;-82
2023/09/22 04:19:57;;;;;;;5.10;2.70;;;12.60;99.90;;;;;;4959738;28;20063;-82
2023/09/22 04:22:23;;;;;;;5.30;1.90;;;12.60;99.90;;;;;;4963058;28;20089;-83
2023/09/22 04:24:51;;;;;;;3.88;1.60;;;12.60;99.90;;;;;;4964866;28;20023;-82
2023/09/22 04:27:16;;;;;;;3.75;1.83;;;12.60;99.90;;;;;;4948019;28;20062;-84
2023/09/22 04:29:42;;;;;;;4.10;2.47;;;12.60;99.90;;;;;;4945192;28;20070;-84
2023/09/22 04:32:08;;;;;;;5.00;2.58;;;12.70;99.90;;;;;;4951207;28;20073;-80
2023/09/22 04:34:35;;;;;;;6.70;2.10;;;12.80;99.90;;;;;;4946547;28;20277;-81
2023/09/22 04:37:04;;;;;;;4.43;2.65;;;12.70;99.90;;;;;;4960198;28;20035;-83
2023/09/22 04:39:31;;;;;;;3.50;1.75;;;12.80;99.90;;;;;;4936631;28;20034;-85
2023/09/22 04:41:58;;;;;;;3.45;1.60;;;12.80;99.90;;;;;;4964606;28;20054;-81
2023/09/22 04:44:24;;;;;;;5.15;1.40;;;12.80;99.90;;;;;;4962813;28;20528;-82
2023/09/22 04:46:49;;;;;;;4.70;2.08;;;12.90;99.90;;;;;;4957398;28;20034;-80
2023/09/22 04:49:15;;;;;;;3.28;1.35;;;12.90;99.90;;;;;;4962134;28;20072;-82
2023/09/22 04:51:42;;;;;;;3.33;1.20;;;13.00;99.90;;;;;;4945440;28;20039;-82
2023/09/22 04:54:07;;;;;;;3.50;1.60;;;13.00;99.90;;;;;;4964519;28;20511;-82
2023/09/22 04:56:34;;;;;;;2.33;0.88;;;13.00;99.90;;;;;;4945980;28;20074;-82
2023/09/22 04:59:00;;;;;;;2.90;0.90;;;13.10;99.90;;;;;;4951078;28;20058;-81
2023/09/22 05:01:30;;;;;;;2.22;1.13;;;13.10;99.90;;;;;;4952054;28;20038;-83
2023/09/22 05:03:56;;;;;;;3.83;1.42;;;13.10;99.90;;;;;;4963480;28;20088;-82
2023/09/22 05:06:22;;;;;;;2.75;1.00;;;13.10;99.90;;;;;;4948297;28;20445;-81
2023/09/22 05:08:47;;;;;;;2.65;1.05;;;13.10;99.90;;;;;;4944053;28;20034;-81
2023/09/22 05:11:13;;;;;;;1.90;0.90;;;13.20;99.90;;;;;;4964488;28;20077;-85
2023/09/22 05:13:39;;;;;;;4.90;1.10;;;13.10;99.90;;;;;;4952729;28;20077;-83
2023/09/22 05:16:09;;;;;;;2.20;0.85;;;13.20;99.90;;;;;;4946733;29;20047;-84
2023/09/22 05:18:36;;;;;;;2.13;0.90;;;13.10;99.90;;;;;;4950018;28;20534;-84
2023/09/22 05:21:02;;;;;;;2.20;0.80;;;13.20;99.90;;;;;;4941579;29;20086;-81
2023/09/22 05:23:32;;;;;;;2.67;0.90;;;13.20;99.90;;;;;;4938604;29;20040;-84
2023/09/22 05:25:59;;;;;;;2.95;1.10;;;13.20;99.90;;;;;;4956879;28;20059;-82
2023/09/22 05:28:24;;;;;;;2.70;0.90;;;13.20;99.90;;;;;;4955429;28;20104;-82
2023/09/22 05:30:50;;;;;;;2.92;1.02;;;13.20;99.90;;;;;;4946551;28;20074;-85
2023/09/22 05:33:16;;;;;;;2.30;0.60;;;13.30;99.90;;;;;;4945520;28;20035;-85
2023/09/22 05:35:42;;;;;;;1.65;0.60;;;13.30;99.90;;;;;;4944224;29;20366;-81
2023/09/22 05:38:09;;;;;;;2.92;0.80;;;13.20;99.90;;;;;;4954571;28;20063;-82
2023/09/22 05:40:36;;;;;;;2.08;0.77;;;13.30;99.90;;;;;;4952004;28;20066;-83
2023/09/22 05:43:04;;;;;;;2.08;0.60;;;13.30;99.90;;;;;;4942467;29;20027;-82
2023/09/22 05:45:33;;;;;;;1.45;0.47;;;13.30;99.90;;;;;;4942516;29;20388;-87
2023/09/22 05:47:59;;;;;;;1.20;0.50;;;13.30;99.90;;;;;;4942760;28;20118;-82
2023/09/22 05:50:25;;;;;;;2.22;0.80;;;13.30;99.90;;;;;;4958890;28;20421;-88
2023/09/22 05:52:51;;;;;;;2.40;0.80;;;13.30;99.90;;;;;;4958591;28;20038;-86
2023/09/22 05:55:18;;;;;;;1.30;0.60;;;13.20;99.90;;;;;;4947747;28;20035;-83
2023/09/22 05:57:44;;;;;;;1.70;0.52;;;13.20;99.90;;;;;;4955078;28;20038;-82
2023/09/22 06:00:16;;;;;;;1.92;0.50;;;13.10;99.90;;;;;;4952955;28;20027;-84
2023/09/22 06:02:49;;;;;;;1.90;0.45;;;13.10;99.90;;;;;;4945297;29;20400;-81
2023/09/22 06:05:18;;;;;;;2.72;0.47;;;13.10;99.90;;;;;;4926776;29;20087;-90
2023/09/22 06:07:44;;;;;;;1.92;0.60;;;13.10;99.90;;;;;;4951665;28;20028;-82
2023/09/22 06:10:10;;;;;;;1.80;0.50;;;13.00;99.90;;;;;;4956860;28;20492;-82
2023/09/22 06:12:37;;;;;;;1.25;0.52;;;13.00;99.90;;;;;;4949166;28;20051;-81
2023/09/22 06:15:07;;;;;;;1.55;0.50;;;13.00;99.90;;;;;;4944976;28;20035;-82
2023/09/22 06:17:37;;;;;;;2.17;0.70;;;13.00;99.90;;;;;;5043157;28;20464;-85
2023/09/22 06:20:15;;;;;;;1.92;0.47;;;13.00;99.90;;;;;;4943155;28;20694;-86
2023/09/22 06:22:42;;;;;;;2.15;0.50;;;13.10;99.90;;;;;;4955223;28;20077;-86
2023/09/22 06:25:09;;;;;;;2.40;0.40;;;13.10;99.90;;;;;;4963912;28;20026;-82
2023/09/22 06:27:34;;;;;;;1.55;0.40;;;13.10;99.90;;;;;;4950235;28;20588;-82
2023/09/22 06:30:01;;;;;;;3.88;0.40;;;13.10;99.90;;;;;;4946520;28;20051;-83
2023/09/22 06:32:26;;;;;;;2.65;0.60;;;13.10;99.90;;;;;;4957071;28;20054;-82
2023/09/22 06:34:53;;;;;;;1.75;0.40;;;13.20;99.90;;;;;;4956947;28;20078;-81
2023/09/22 06:37:19;;;;;;;1.52;0.50;;;13.20;99.90;;;;;;4946070;28;20467;-82
2023/09/22 06:39:46;;;;;;;1.10;0.30;;;13.30;99.90;;;;;;4949258;28;20030;-85
2023/09/22 06:42:12;;;;;;;1.13;0.35;;;13.30;99.90;;;;;;4943298;28;20047;-84
2023/09/22 06:44:38;;;;;;;1.17;0.40;;;13.40;99.90;;;;;;4949715;28;20027;-85
2023/09/22 06:47:05;;;;;;;1.10;0.40;;;13.50;99.90;;;;;;4961055;28;20045;-82
2023/09/22 06:49:33;;;;;;;1.17;0.40;;;13.50;99.90;;;;;;4963302;28;20027;-83
2023/09/22 06:51:59;;;;;;;1.40;0.40;;;13.60;99.90;;;;;;4947480;28;20114;-83
2023/09/22 06:54:26;;;;;;;1.98;0.32;;;13.70;99.90;;;;;;4942757;28;20499;-83
2023/09/22 06:56:52;;;;;;;1.50;0.45;;;13.70;99.90;;;;;;4945799;28;20491;-82
2023/09/22 06:59:22;;;;;;;0.75;0.30;;;13.70;99.90;;;;;;4927862;28;20471;-83
2023/09/22 07:01:48;;;;;;;1.40;0.40;;;13.80;99.90;;;;;;4945342;28;20383;-83
2023/09/22 07:04:14;;;;;;;3.10;0.40;;;13.80;99.90;;;;;;4946092;28;20043;-84
2023/09/22 07:06:40;;;;;;;1.42;0.30;;;13.90;99.90;;;;;;4928631;28;20035;-84
2023/09/22 07:09:09;;;;;;;1.75;0.40;;;14.00;99.90;;;;;;4946234;28;20110;-83
2023/09/22 07:11:40;;;;;;;1.45;0.40;;;14.00;99.90;;;;;;4930827;28;20558;-84
2023/09/22 07:14:09;;;;;;;1.63;0.40;;;14.10;99.90;;;;;;4940683;28;20054;-83
2023/09/22 07:16:35;;;;;;;2.05;0.57;;;14.20;99.90;;;;;;4941934;28;20039;-83
2023/09/22 07:19:01;;;;;;;1.55;0.50;;;14.20;99.90;;;;;;4944859;28;20065;-82
2023/09/22 07:21:27;;;;;;;1.52;0.32;;;14.20;99.90;;;;;;4942476;28;20178;-82
2023/09/22 07:23:55;;;;;;;1.60;0.20;;;14.40;99.90;;;;;;4944207;28;20553;-81
2023/09/22 07:26:21;;;;;;;3.35;0.40;;;14.40;99.90;;;;;;4940856;28;20733;-84
2023/09/22 07:28:47;;;;;;;1.48;0.40;;;14.50;99.90;;;;;;4943343;28;20127;-81
2023/09/22 07:31:14;;;;;;;1.45;0.47;;;14.60;99.90;;;;;;4946561;28;20584;-82
2023/09/22 07:33:45;;;;;;;0.90;0.20;;;14.60;99.90;;;;;;4973117;28;20092;-85
2023/09/22 07:36:15;;;;;;;1.58;0.40;;;14.70;99.90;;;;;;4942963;28;20027;-84
2023/09/22 07:38:41;;;;;;;2.40;0.30;;;14.80;99.90;;;;;;4942698;28;20092;-82
2023/09/22 07:41:06;;;;;;;1.10;0.30;;;14.80;99.90;;;;;;4943888;28;20289;-84
2023/09/22 07:43:32;;;;;;;1.05;0.28;;;14.90;99.90;;;;;;4928691;28;20431;-82
2023/09/22 07:46:00;;;;;;;1.98;0.45;;;14.90;99.90;;;;;;4971444;28;20130;-80
2023/09/22 07:48:27;;;;;;;1.48;0.40;;;14.80;99.90;;;;;;4958243;28;20317;-82
2023/09/22 07:50:52;;;;;;;1.23;0.30;;;14.80;99.90;;;;;;5007533;28;20539;-82
2023/09/22 07:53:19;;;;;;;1.67;0.30;;;15.00;99.90;;;;;;4941737;28;20039;-82
2023/09/22 07:55:45;;;;;;;2.00;0.40;;;15.10;99.90;;;;;;4942047;28;20619;-80
2023/09/22 07:58:11;;;;;;;2.90;0.30;;;15.20;99.90;;;;;;4931223;28;20027;-82
2023/09/22 08:00:42;;;;;;;2.45;0.30;;;15.30;99.90;;;;;;4948403;28;20502;-82
2023/09/22 08:03:09;;;;;;;1.25;0.38;;;15.30;99.90;;;;;;4960197;28;20034;-83
2023/09/22 08:05:35;;;;;;;1.90;0.30;;;15.30;99.90;;;;;;4938480;28;20040;-86
2023/09/22 08:08:04;;;;;;;1.05;0.30;;;15.70;99.90;;;;;;4944943;28;20039;-84
2023/09/22 08:10:30;;;;;;;1.08;0.30;;;15.80;99.90;;;;;;4931611;28;20101;-83
2023/09/22 08:12:56;;;;;;;0.98;0.30;;;15.70;99.90;;;;;;4943153;28;20055;-83
2023/09/22 08:15:22;;;;;;;1.00;0.30;;;16.10;99.90;;;;;;4957894;28;20398;-81
2023/09/22 08:17:49;;;;;;;0.63;0.20;;;16.10;99.90;;;;;;5026916;28;20077;-81
2023/09/22 08:22:44;;;;;;;1.20;0.20;;;16.20;99.90;;;;;;4977577;28;20519;-89
2023/09/22 08:25:10;;;;;;;1.00;0.20;;;16.40;99.90;;;;;;4964607;28;20038;-87
2023/09/22 08:27:39;;;;;;;1.58;0.28;;;16.20;99.90;;;;;;4915627;28;20047;-90
2023/09/22 08:30:11;;;;;;;1.10;0.28;;;16.40;99.90;;;;;;4981064;28;20039;-89
2023/09/22 08:32:42;;;;;;;0.30;0.10;;;16.70;99.90;;;;;;4965073;28;20450;-91
2023/09/22 08:35:10;;;;;;;1.15;0.20;;;16.90;99.90;;;;;;4965525;28;20035;-90
2023/09/22 08:37:45;;;;;;;0.93;0.20;;;16.50;99.90;;;;;;4965150;28;20039;-91
2023/09/22 08:40:17;;;;;;;1.02;0.20;;;16.80;99.90;;;;;;4981671;28;20032;-90
2023/09/22 08:42:45;;;;;;;0.98;0.20;;;17.00;99.90;;;;;;4980341;28;20058;-90
2023/09/22 08:45:12;;;;;;;0.90;0.10;;;17.00;99.90;;;;;;4969604;28;20123;-91
2023/09/22 08:47:40;;;;;;;0.80;0.10;;;16.90;99.90;;;;;;4985406;28;20923;-90
2023/09/22 08:50:11;;;;;;;0.95;0.10;;;17.10;99.90;;;;;;4985221;28;20042;-90
2023/09/22 08:52:42;;;;;;;0.63;0.10;;;17.10;99.90;;;;;;4992310;28;20467;-89
2023/09/22 08:55:13;;;;;;;0.50;0.10;;;17.10;99.90;;;;;;4984588;28;20510;-91
2023/09/22 08:57:45;;;;;;;0.50;0.10;;;17.10;99.90;;;;;;4976691;28;20070;-89
2023/09/22 09:00:20;;;;;;;3.03;0.10;;;17.40;99.90;;;;;;4968794;28;20058;-93
2023/09/22 09:02:55;;;;;;;0.75;0.10;;;17.30;99.90;;;;;;4995867;28;20063;-90
2023/09/22 09:05:23;;;;;;;0.75;0.10;;;17.30;99.90;;;;;;4993026;28;20101;-90
2023/09/22 09:07:50;;;;;;;0.38;0.13;;;17.30;99.90;;;;;;4981864;28;20028;-89
2023/09/22 09:10:32;;;;;;;0.35;0.10;;;17.30;99.90;;;;;;4991753;28;20458;-91
2023/09/22 09:13:02;;;;;;;0.30;0.10;;;17.70;99.90;;;;;;4991852;28;20149;-90
2023/09/22 09:15:33;;;;;;;1.25;0.10;;;17.80;99.90;;;;;;4997794;28;20028;-93
2023/09/22 09:18:07;;;;;;;0.50;0.10;;;17.90;99.90;;;;;;4992483;28;20183;-90
2023/09/22 09:20:37;;;;;;;1.20;0.00;;;17.60;99.90;;;;;;4935590;28;20067;-92
2023/09/22 09:23:19;;;;;;;0.50;0.10;;;17.60;99.90;;;;;;4994064;28;20485;-91
2023/09/22 09:25:54;;;;;;;1.02;0.10;;;17.70;99.90;;;;;;5012263;28;20029;-88
2023/09/22 09:28:21;;;;;;;0.68;0.10;;;17.60;99.90;;;;;;5010805;28;20021;-92
2023/09/22 09:30:52;;;;;;;1.00;0.00;;;17.70;99.90;;;;;;5007413;28;20034;-90
2023/09/22 09:33:46;;;;;;;1.70;0.20;;;18.10;99.90;;;;;;5011772;28;20381;-90
2023/09/22 09:36:16;;;;;;;2.47;0.10;;;17.70;99.90;;;;;;5011767;28;20065;-89
2023/09/22 09:38:42;;;;;;;0.60;0.00;;;17.80;99.90;;;;;;5008386;28;20116;-89
2023/09/22 09:41:10;;;;;;;2.15;0.10;;;17.70;99.90;;;;;;5011640;28;20311;-89
2023/09/22 09:43:37;;;;;;;0.57;0.10;;;17.60;99.90;;;;;;5010064;28;20021;-90
2023/09/22 09:46:05;;;;;;;0.77;0.03;;;17.80;99.90;;;;;;4994211;28;20026;-89
2023/09/22 09:48:37;;;;;;;0.55;0.10;;;17.90;99.90;;;;;;5007408;28;20389;-88
2023/09/22 09:51:07;;;;;;;0.80;0.10;;;17.70;99.90;;;;;;5008999;28;20076;-88
2023/09/22 09:53:42;;;;;;;2.10;0.20;;;17.90;99.90;;;;;;5007412;28;20029;-89
2023/09/22 09:56:08;;;;;;;1.23;0.10;;;17.50;99.90;;;;;;5010351;28;20128;-90
2023/09/22 09:58:35;;;;;;;0.77;0.10;;;18.00;99.90;;;;;;4992701;28;20112;-90
2023/09/22 10:01:05;;;;;;;2.35;0.40;;;17.60;99.90;;;;;;4995102;28;20048;-90
2023/09/22 10:03:31;;;;;;;;;;;17.80;99.90;;;;;;5011613;28;20108;-88
2023/09/22 10:05:57;;;;;;;1.48;0.10;;;18.10;99.90;;;;;;5012967;28;19916;-90
2023/09/22 10:08:26;;;;;;;1.70;0.20;;;18.20;99.90;;;;;;4994996;28;20033;-89
2023/09/22 10:11:00;;;;;;;4.25;0.20;;;18.00;99.90;;;;;;4989889;28;20037;-89
2023/09/22 10:13:27;;;;;;;0.52;0.10;;;17.50;99.90;;;;;;4991525;28;20025;-88
2023/09/22 10:15:55;;;;;;;1.02;0.10;;;17.90;99.90;;;;;;4994601;28;20086;-90
2023/09/22 10:18:23;;;;;;;1.17;0.10;;;18.20;99.90;;;;;;5004888;28;20124;-88
2023/09/22 10:20:49;;;;;;;0.80;0.17;;;17.90;99.90;;;;;;5011827;28;20041;-88
2023/09/22 10:23:27;;;;;;;1.90;0.10;;;17.80;99.90;;;;;;4988617;28;20414;-91
2023/09/22 10:26:05;;;;;;;0.70;0.10;;;17.80;99.90;;;;;;4994568;28;20025;-88
2023/09/22 10:28:31;;;;;;;1.83;0.10;;;17.40;99.90;;;;;;5016713;28;20078;-89
2023/09/22 10:30:59;;;;;;;1.60;0.10;;;17.50;99.90;;;;;;5011863;28;20022;-91
2023/09/22 10:33:26;;;;;;;1.30;0.10;;;17.00;99.90;;;;;;5010160;28;20033;-92
2023/09/22 10:35:53;;;;;;;0.47;0.00;;;17.00;99.90;;;;;;5009524;28;20288;-89
2023/09/22 10:38:22;;;;;;;2.20;0.10;;;17.40;99.90;;;;;;5009260;28;20388;-92
2023/09/22 10:41:06;;;;;;;1.88;0.10;;;17.20;99.90;;;;;;4992163;28;20041;-89
2023/09/22 10:43:32;;;;;;;3.35;0.10;;;17.50;99.90;;;;;;5006252;28;20033;-89
2023/09/22 10:45:59;;;;;;;1.30;0.10;;;17.70;99.90;;;;;;5007643;28;20696;-92
2023/09/22 10:48:34;;;;;;;0.60;0.10;;;17.90;99.90;;;;;;5004752;28;20513;-92
2023/09/22 10:51:05;;;;;;;0.70;0.10;;;18.30;99.90;;;;;;4992953;28;20040;-93
2023/09/22 10:53:34;;;;;;;0.77;0.10;;;18.60;99.90;;;;;;4992221;28;20461;-91
2023/09/22 10:56:03;;;;;;;0.50;0.10;;;18.30;99.90;;;;;;5009785;28;20048;-91
2023/09/22 10:58:28;;;;;;;0.40;0.00;;;17.70;99.90;;;;;;5000050;28;20057;-92
2023/09/22 11:00:56;;;;;;;1.05;0.10;;;17.50;99.90;;;;;;4995149;28;20559;-89
2023/09/22 11:03:23;;;;;;;0.73;0.10;;;17.40;99.90;;;;;;5012122;28;20471;-89
2023/09/22 11:06:06;;;;;;;0.30;0.10;;;18.00;99.90;;;;;;5009192;28;20026;-90
2023/09/22 11:08:32;;;;;;;0.70;0.00;;;18.60;99.90;;;;;;5026044;28;20033;-88
2023/09/22 11:11:01;;;;;;;0.50;0.08;;;18.30;99.90;;;;;;5009329;28;20039;-93
2023/09/22 11:13:27;;;;;;;0.68;0.10;;;18.60;99.90;;;;;;5008240;28;20127;-93
2023/09/22 11:15:59;;;;;;;0.50;0.00;;;18.80;99.90;;;;;;5007703;28;20121;-89
2023/09/22 11:18:33;;;;;;;0.45;0.00;;;19.30;99.90;;;;;;4994357;28;20044;-91
2023/09/22 11:21:11;;;;;;;1.50;0.10;;;19.70;99.90;;;;;;5006754;28;20049;-89
2023/09/22 11:23:38;;;;;;;1.50;0.10;;;19.10;99.90;;;;;;4992121;28;20037;-93
2023/09/22 11:26:06;;;;;;;0.35;0.00;;;19.00;99.90;;;;;;5021024;28;20042;-91
2023/09/22 11:28:32;;;;;;;0.95;0.10;;;18.50;99.90;;;;;;5024042;28;20476;-88
2023/09/22 11:31:17;;;;;;;0.40;0.10;;;17.70;99.90;;;;;;5021288;28;20088;-88
2023/09/22 11:33:44;;;;;;;0.50;0.10;;;17.60;99.90;;;;;;5010879;28;20034;-89
2023/09/22 11:36:12;;;;;;;1.27;0.10;;;17.60;99.90;;;;;;5009445;28;20033;-88
2023/09/22 11:38:45;;;;;;;0.60;0.03;;;17.50;99.90;;;;;;5024265;28;20018;-89
2023/09/22 11:41:16;;;;;;;0.98;0.10;;;17.60;99.90;;;;;;4989856;28;20099;-90
2023/09/22 11:43:45;;;;;;;0.43;0.05;;;17.00;99.90;;;;;;5009503;28;20060;-91
2023/09/22 11:46:28;;;;;;;0.43;0.10;;;16.80;99.90;;;;;;5006797;28;20034;-89
2023/09/22 11:48:59;;;;;;;0.35;0.10;;;16.80;99.90;;;;;;5004032;28;20022;-90
2023/09/22 11:51:59;;;;;;;0.70;0.10;;;16.60;99.90;;;;;;5007313;28;20056;-90
2023/09/22 11:54:28;;;;;;;1.48;0.10;;;16.60;99.90;;;;;;4970874;28;20132;-93
2023/09/22 11:56:57;;;;;;;1.05;0.10;;;16.60;99.90;;;;;;5008047;28;20114;-90
2023/09/22 11:59:26;;;;;;;0.40;0.05;;;16.80;99.90;;;;;;5008614;28;20374;-89
2023/09/22 12:01:52;;;;;;;0.50;0.05;;;17.00;99.90;;;;;;4991439;28;20481;-89
2023/09/22 12:04:19;;;;;;;0.55;0.00;;;17.40;99.90;;;;;;5006826;28;20106;-91
2023/09/22 12:06:45;;;;;;;0.40;0.00;;;18.00;99.90;;;;;;5004687;28;20022;-90
2023/09/22 12:09:12;;;;;;;0.80;0.08;;;18.60;99.90;;;;;;5006354;28;20026;-89
2023/09/22 12:11:41;;;;;;;0.40;0.10;;;19.10;99.90;;;;;;5021893;28;20026;-93
2023/09/22 12:14:11;;;;;;;1.95;0.10;;;18.90;99.90;;;;;;5005176;28;20084;-92
2023/09/22 12:16:38;;;;;;;0.70;0.10;;;19.10;99.90;;;;;;4990761;28;20058;-90
2023/09/22 12:19:05;;;;;;;1.25;0.03;;;18.90;99.90;;;;;;5008104;28;20044;-94
2023/09/22 12:21:31;;;;;;;0.20;0.00;;;19.20;99.90;;;;;;5011268;28;20138;-91
2023/09/22 12:24:00;;;;;;;0.88;0.10;;;19.40;99.90;;;;;;5027681;28;20030;-94
2023/09/22 12:26:26;;;;;;;0.30;0.10;;;18.70;99.90;;;;;;4993966;28;20040;-91
2023/09/22 12:28:52;;;;;;;0.50;0.10;;;18.90;99.90;;;;;;5010605;28;20113;-90
2023/09/22 12:31:18;;;;;;;0.60;0.10;;;19.20;99.90;;;;;;4994793;28;20034;-89
2023/09/22 12:33:45;;;;;;;0.57;0.08;;;19.60;99.90;;;;;;5007065;28;20026;-90
2023/09/22 12:36:15;;;;;;;1.27;0.10;;;19.60;99.90;;;;;;4996796;28;20041;-90
2023/09/22 12:38:44;;;;;;;0.77;0.10;;;19.40;99.90;;;;;;5027086;28;20036;-92
2023/09/22 12:41:11;;;;;;;1.13;0.10;;;19.30;99.90;;;;;;5024414;28;20459;-90
2023/09/22 12:43:37;;;;;;;0.35;0.10;;;18.70;99.90;;;;;;5009850;28;20022;-90
2023/09/22 12:46:11;;;;;;;0.50;0.10;;;18.70;99.90;;;;;;5010772;28;20037;-91
2023/09/22 12:48:40;;;;;;;0.70;0.10;;;18.90;99.90;;;;;;5008951;28;20436;-90
2023/09/22 12:51:07;;;;;;;0.50;0.10;;;18.60;99.90;;;;;;5010211;28;20030;-90